sensor_id;sensor_type;location;lat;lon;timestamp;P1;durP1;ratioP1;P2;durP2;ratioP2
20458;SDS011;10388;52.314;7.938;2023-07-20T00:42:24;2.00;;;1.60;;
20458;SDS011;10388;52.314;7.938;2023-07-20T01:20:31;1.27;;;1.17;;
20458;SDS011;10388;52.314;7.938;2023-07-20T01:26:11;1.80;;;1.40;;
20458;SDS011;10388;52.314;7.938;2023-07-20T01:31:33;1.70;;;1.60;;
20458;SDS011;10388;52.314;7.938;2023-07-20T01:34:07;1.13;;;1.13;;
20458;SDS011;10388;52.314;7.938;2023-07-20T01:36:42;2.43;;;1.70;;
20458;SDS011;10388;52.314;7.938;2023-07-20T01:39:14;3.50;;;1.77;;
20458;SDS011;10388;52.314;7.938;2023-07-20T01:41:44;2.97;;;1.70;;
20458;SDS011;10388;52.314;7.938;2023-07-20T01:44:16;4.60;;;2.60;;
20458;SDS011;10388;52.314;7.938;2023-07-20T01:46:47;5.07;;;3.10;;
20458;SDS011;10388;52.314;7.938;2023-07-20T01:49:17;2.80;;;2.60;;
20458;SDS011;10388;52.314;7.938;2023-07-20T01:51:48;3.43;;;3.13;;
20458;SDS011;10388;52.314;7.938;2023-07-20T01:54:19;4.40;;;3.00;;
20458;SDS011;10388;52.314;7.938;2023-07-20T01:56:54;3.07;;;2.77;;
20458;SDS011;10388;52.314;7.938;2023-07-20T01:59:26;3.93;;;3.53;;
20458;SDS011;10388;52.314;7.938;2023-07-20T02:01:57;3.50;;;3.20;;
20458;SDS011;10388;52.314;7.938;2023-07-20T02:04:33;3.80;;;3.40;;
20458;SDS011;10388;52.314;7.938;2023-07-20T02:07:10;3.70;;;3.40;;
20458;SDS011;10388;52.314;7.938;2023-07-20T02:13:49;3.47;;;3.17;;
20458;SDS011;10388;52.314;7.938;2023-07-20T02:16:25;3.50;;;3.20;;
20458;SDS011;10388;52.314;7.938;2023-07-20T02:22:43;3.60;;;3.30;;
20458;SDS011;10388;52.314;7.938;2023-07-20T02:25:15;3.90;;;3.60;;
20458;SDS011;10388;52.314;7.938;2023-07-20T02:27:58;3.80;;;3.50;;
20458;SDS011;10388;52.314;7.938;2023-07-20T02:30:29;4.53;;;3.33;;
20458;SDS011;10388;52.314;7.938;2023-07-20T02:33:00;4.13;;;3.57;;
20458;SDS011;10388;52.314;7.938;2023-07-20T02:35:32;4.53;;;4.13;;
20458;SDS011;10388;52.314;7.938;2023-07-20T02:38:05;3.80;;;3.50;;
20458;SDS011;10388;52.314;7.938;2023-07-20T02:40:37;5.37;;;4.60;;
20458;SDS011;10388;52.314;7.938;2023-07-20T02:43:07;4.87;;;4.47;;
20458;SDS011;10388;52.314;7.938;2023-07-20T02:45:43;4.83;;;4.43;;
20458;SDS011;10388;52.314;7.938;2023-07-20T02:48:14;4.83;;;4.33;;
20458;SDS011;10388;52.314;7.938;2023-07-20T02:50:45;4.67;;;4.20;;
20458;SDS011;10388;52.314;7.938;2023-07-20T02:53:15;4.70;;;4.30;;
20458;SDS011;10388;52.314;7.938;2023-07-20T02:55:46;4.23;;;3.90;;
20458;SDS011;10388;52.314;7.938;2023-07-20T02:58:18;4.07;;;3.73;;
20458;SDS011;10388;52.314;7.938;2023-07-20T03:00:52;4.10;;;3.70;;
20458;SDS011;10388;52.314;7.938;2023-07-20T03:03:25;4.67;;;4.17;;
20458;SDS011;10388;52.314;7.938;2023-07-20T03:05:58;4.53;;;4.17;;
20458;SDS011;10388;52.314;7.938;2023-07-20T03:08:33;4.70;;;4.17;;
20458;SDS011;10388;52.314;7.938;2023-07-20T03:11:05;4.50;;;4.10;;
20458;SDS011;10388;52.314;7.938;2023-07-20T03:17:04;5.67;;;4.77;;
20458;SDS011;10388;52.314;7.938;2023-07-20T03:19:41;4.83;;;4.43;;
20458;SDS011;10388;52.314;7.938;2023-07-20T03:22:56;4.63;;;4.23;;
20458;SDS011;10388;52.314;7.938;2023-07-20T03:26:24;4.67;;;4.00;;
20458;SDS011;10388;52.314;7.938;2023-07-20T03:28:55;5.53;;;4.47;;
20458;SDS011;10388;52.314;7.938;2023-07-20T03:31:32;3.70;;;3.40;;
20458;SDS011;10388;52.314;7.938;2023-07-20T03:34:42;4.50;;;4.10;;
20458;SDS011;10388;52.314;7.938;2023-07-20T03:37:16;6.13;;;4.03;;
20458;SDS011;10388;52.314;7.938;2023-07-20T03:39:58;3.23;;;3.03;;
20458;SDS011;10388;52.314;7.938;2023-07-20T03:42:30;3.57;;;3.30;;
20458;SDS011;10388;52.314;7.938;2023-07-20T03:45:22;3.27;;;2.90;;
20458;SDS011;10388;52.314;7.938;2023-07-20T03:48:06;3.40;;;3.10;;
20458;SDS011;10388;52.314;7.938;2023-07-20T03:50:52;3.23;;;2.93;;
20458;SDS011;10388;52.314;7.938;2023-07-20T03:53:45;3.47;;;3.10;;
20458;SDS011;10388;52.314;7.938;2023-07-20T03:56:37;3.37;;;3.07;;
20458;SDS011;10388;52.314;7.938;2023-07-20T03:59:11;3.33;;;3.03;;
20458;SDS011;10388;52.314;7.938;2023-07-20T04:01:42;2.83;;;2.63;;
20458;SDS011;10388;52.314;7.938;2023-07-20T04:04:22;3.10;;;2.83;;
20458;SDS011;10388;52.314;7.938;2023-07-20T04:06:53;3.03;;;2.83;;
20458;SDS011;10388;52.314;7.938;2023-07-20T04:09:24;2.97;;;2.70;;
20458;SDS011;10388;52.314;7.938;2023-07-20T04:11:57;24.27;;;3.20;;
20458;SDS011;10388;52.314;7.938;2023-07-20T04:14:28;3.60;;;2.97;;
20458;SDS011;10388;52.314;7.938;2023-07-20T04:16:58;3.90;;;2.97;;
20458;SDS011;10388;52.314;7.938;2023-07-20T04:19:30;3.40;;;2.70;;
20458;SDS011;10388;52.314;7.938;2023-07-20T04:22:00;3.57;;;3.27;;
20458;SDS011;10388;52.314;7.938;2023-07-20T04:24:32;3.13;;;2.93;;
20458;SDS011;10388;52.314;7.938;2023-07-20T04:27:02;3.67;;;3.00;;
20458;SDS011;10388;52.314;7.938;2023-07-20T04:29:33;3.47;;;3.13;;
20458;SDS011;10388;52.314;7.938;2023-07-20T04:32:04;3.23;;;2.93;;
20458;SDS011;10388;52.314;7.938;2023-07-20T04:34:35;3.60;;;3.30;;
20458;SDS011;10388;52.314;7.938;2023-07-20T04:37:07;3.70;;;3.03;;
20458;SDS011;10388;52.314;7.938;2023-07-20T04:39:37;4.80;;;2.97;;
20458;SDS011;10388;52.314;7.938;2023-07-20T04:42:08;2.63;;;2.43;;
20458;SDS011;10388;52.314;7.938;2023-07-20T04:44:38;3.50;;;3.20;;
20458;SDS011;10388;52.314;7.938;2023-07-20T04:47:09;5.07;;;4.27;;
20458;SDS011;10388;52.314;7.938;2023-07-20T04:49:39;6.60;;;5.07;;
20458;SDS011;10388;52.314;7.938;2023-07-20T04:52:10;5.70;;;5.00;;
20458;SDS011;10388;52.314;7.938;2023-07-20T04:54:41;5.33;;;4.60;;
20458;SDS011;10388;52.314;7.938;2023-07-20T04:57:11;6.97;;;4.60;;
20458;SDS011;10388;52.314;7.938;2023-07-20T04:59:43;3.73;;;3.10;;
20458;SDS011;10388;52.314;7.938;2023-07-20T05:02:13;2.93;;;2.73;;
20458;SDS011;10388;52.314;7.938;2023-07-20T05:04:44;3.17;;;2.90;;
20458;SDS011;10388;52.314;7.938;2023-07-20T05:07:14;2.97;;;2.73;;
20458;SDS011;10388;52.314;7.938;2023-07-20T05:09:45;3.10;;;2.80;;
20458;SDS011;10388;52.314;7.938;2023-07-20T05:12:15;4.37;;;2.83;;
20458;SDS011;10388;52.314;7.938;2023-07-20T05:14:46;3.03;;;2.70;;
20458;SDS011;10388;52.314;7.938;2023-07-20T05:17:16;3.33;;;3.03;;
20458;SDS011;10388;52.314;7.938;2023-07-20T05:19:47;2.80;;;2.60;;
20458;SDS011;10388;52.314;7.938;2023-07-20T05:22:17;4.30;;;2.73;;
20458;SDS011;10388;52.314;7.938;2023-07-20T05:24:48;2.97;;;2.73;;
20458;SDS011;10388;52.314;7.938;2023-07-20T05:27:18;2.93;;;2.73;;
20458;SDS011;10388;52.314;7.938;2023-07-20T05:29:49;5.63;;;3.10;;
20458;SDS011;10388;52.314;7.938;2023-07-20T05:32:19;3.20;;;2.90;;
20458;SDS011;10388;52.314;7.938;2023-07-20T05:34:53;3.03;;;2.83;;
20458;SDS011;10388;52.314;7.938;2023-07-20T05:37:24;3.60;;;3.30;;
20458;SDS011;10388;52.314;7.938;2023-07-20T05:39:54;4.07;;;3.67;;
20458;SDS011;10388;52.314;7.938;2023-07-20T05:42:25;4.73;;;4.20;;
20458;SDS011;10388;52.314;7.938;2023-07-20T05:44:55;4.57;;;3.97;;
20458;SDS011;10388;52.314;7.938;2023-07-20T05:47:26;3.90;;;3.60;;
20458;SDS011;10388;52.314;7.938;2023-07-20T05:49:57;4.07;;;3.67;;
20458;SDS011;10388;52.314;7.938;2023-07-20T05:52:27;3.73;;;3.43;;
20458;SDS011;10388;52.314;7.938;2023-07-20T05:54:58;7.20;;;3.83;;
20458;SDS011;10388;52.314;7.938;2023-07-20T05:57:28;3.80;;;3.50;;
20458;SDS011;10388;52.314;7.938;2023-07-20T05:59:59;7.80;;;4.10;;
20458;SDS011;10388;52.314;7.938;2023-07-20T06:02:29;7.77;;;4.53;;
20458;SDS011;10388;52.314;7.938;2023-07-20T06:05:00;6.50;;;5.90;;
20458;SDS011;10388;52.314;7.938;2023-07-20T06:07:30;7.20;;;6.60;;
20458;SDS011;10388;52.314;7.938;2023-07-20T06:10:01;8.53;;;7.50;;
20458;SDS011;10388;52.314;7.938;2023-07-20T06:12:32;8.57;;;7.80;;
20458;SDS011;10388;52.314;7.938;2023-07-20T06:15:04;9.13;;;8.23;;
20458;SDS011;10388;52.314;7.938;2023-07-20T06:17:35;8.80;;;8.00;;
20458;SDS011;10388;52.314;7.938;2023-07-20T06:20:07;9.10;;;8.30;;
20458;SDS011;10388;52.314;7.938;2023-07-20T06:22:38;10.87;;;9.90;;
20458;SDS011;10388;52.314;7.938;2023-07-20T06:25:08;9.73;;;8.93;;
20458;SDS011;10388;52.314;7.938;2023-07-20T06:27:39;10.43;;;9.53;;
20458;SDS011;10388;52.314;7.938;2023-07-20T06:30:10;11.90;;;10.67;;
20458;SDS011;10388;52.314;7.938;2023-07-20T06:32:41;12.97;;;10.67;;
20458;SDS011;10388;52.314;7.938;2023-07-20T06:35:12;11.10;;;10.07;;
20458;SDS011;10388;52.314;7.938;2023-07-20T06:37:43;11.30;;;10.20;;
20458;SDS011;10388;52.314;7.938;2023-07-20T06:40:13;10.47;;;9.57;;
20458;SDS011;10388;52.314;7.938;2023-07-20T06:42:44;10.10;;;9.20;;
20458;SDS011;10388;52.314;7.938;2023-07-20T06:45:14;10.37;;;9.37;;
20458;SDS011;10388;52.314;7.938;2023-07-20T06:47:46;8.63;;;7.93;;
20458;SDS011;10388;52.314;7.938;2023-07-20T06:50:16;8.23;;;7.50;;
20458;SDS011;10388;52.314;7.938;2023-07-20T06:52:47;7.60;;;7.00;;
20458;SDS011;10388;52.314;7.938;2023-07-20T06:55:17;5.60;;;5.20;;
20458;SDS011;10388;52.314;7.938;2023-07-20T06:57:48;7.13;;;5.53;;
20458;SDS011;10388;52.314;7.938;2023-07-20T07:00:19;6.23;;;5.23;;
20458;SDS011;10388;52.314;7.938;2023-07-20T07:02:49;4.93;;;4.53;;
20458;SDS011;10388;52.314;7.938;2023-07-20T07:05:20;5.47;;;5.07;;
20458;SDS011;10388;52.314;7.938;2023-07-20T07:07:51;6.70;;;6.20;;
20458;SDS011;10388;52.314;7.938;2023-07-20T07:10:21;5.70;;;5.20;;
20458;SDS011;10388;52.314;7.938;2023-07-20T07:12:52;5.30;;;4.87;;
20458;SDS011;10388;52.314;7.938;2023-07-20T07:15:22;4.90;;;4.20;;
20458;SDS011;10388;52.314;7.938;2023-07-20T07:17:53;3.80;;;3.50;;
20458;SDS011;10388;52.314;7.938;2023-07-20T07:20:24;4.50;;;4.20;;
20458;SDS011;10388;52.314;7.938;2023-07-20T07:22:54;3.63;;;3.30;;
20458;SDS011;10388;52.314;7.938;2023-07-20T07:25:27;3.03;;;2.83;;
20458;SDS011;10388;52.314;7.938;2023-07-20T07:27:57;3.93;;;3.63;;
20458;SDS011;10388;52.314;7.938;2023-07-20T07:30:28;4.17;;;3.87;;
20458;SDS011;10388;52.314;7.938;2023-07-20T07:32:58;4.70;;;4.40;;
20458;SDS011;10388;52.314;7.938;2023-07-20T07:35:29;3.20;;;3.00;;
20458;SDS011;10388;52.314;7.938;2023-07-20T07:38:00;2.67;;;2.47;;
20458;SDS011;10388;52.314;7.938;2023-07-20T07:40:30;2.77;;;2.23;;
20458;SDS011;10388;52.314;7.938;2023-07-20T07:43:01;2.47;;;2.27;;
20458;SDS011;10388;52.314;7.938;2023-07-20T07:45:34;2.90;;;2.60;;
20458;SDS011;10388;52.314;7.938;2023-07-20T07:48:08;1.97;;;1.77;;
20458;SDS011;10388;52.314;7.938;2023-07-20T07:50:41;2.10;;;2.00;;
20458;SDS011;10388;52.314;7.938;2023-07-20T07:53:12;3.63;;;2.00;;
20458;SDS011;10388;52.314;7.938;2023-07-20T07:55:42;2.83;;;1.90;;
20458;SDS011;10388;52.314;7.938;2023-07-20T07:58:13;2.00;;;1.80;;
20458;SDS011;10388;52.314;7.938;2023-07-20T08:00:44;2.70;;;1.67;;
20458;SDS011;10388;52.314;7.938;2023-07-20T08:03:14;1.53;;;0.90;;
20458;SDS011;10388;52.314;7.938;2023-07-20T08:05:44;1.17;;;0.80;;
20458;SDS011;10388;52.314;7.938;2023-07-20T08:08:15;1.67;;;0.90;;
20458;SDS011;10388;52.314;7.938;2023-07-20T08:10:46;1.63;;;1.00;;
20458;SDS011;10388;52.314;7.938;2023-07-20T08:13:17;1.63;;;1.10;;
20458;SDS011;10388;52.314;7.938;2023-07-20T08:15:49;2.60;;;0.87;;
20458;SDS011;10388;52.314;7.938;2023-07-20T08:18:21;1.53;;;1.00;;
20458;SDS011;10388;52.314;7.938;2023-07-20T08:20:52;1.43;;;0.93;;
20458;SDS011;10388;52.314;7.938;2023-07-20T08:23:22;1.73;;;0.90;;
20458;SDS011;10388;52.314;7.938;2023-07-20T08:25:53;0.80;;;0.80;;
20458;SDS011;10388;52.314;7.938;2023-07-20T08:28:24;1.77;;;0.90;;
20458;SDS011;10388;52.314;7.938;2023-07-20T08:30:56;1.10;;;0.83;;
20458;SDS011;10388;52.314;7.938;2023-07-20T08:33:27;5.27;;;1.07;;
20458;SDS011;10388;52.314;7.938;2023-07-20T08:36:02;0.70;;;0.70;;
20458;SDS011;10388;52.314;7.938;2023-07-20T08:38:33;0.80;;;0.80;;
20458;SDS011;10388;52.314;7.938;2023-07-20T08:41:04;1.57;;;0.87;;
20458;SDS011;10388;52.314;7.938;2023-07-20T08:43:34;1.07;;;0.97;;
20458;SDS011;10388;52.314;7.938;2023-07-20T08:46:08;1.47;;;0.80;;
20458;SDS011;10388;52.314;7.938;2023-07-20T08:48:41;0.80;;;0.80;;
20458;SDS011;10388;52.314;7.938;2023-07-20T08:51:13;0.97;;;0.87;;
20458;SDS011;10388;52.314;7.938;2023-07-20T08:53:45;0.80;;;0.80;;
20458;SDS011;10388;52.314;7.938;2023-07-20T08:56:17;1.40;;;1.30;;
20458;SDS011;10388;52.314;7.938;2023-07-20T08:58:49;0.93;;;0.90;;
20458;SDS011;10388;52.314;7.938;2023-07-20T09:01:21;1.27;;;0.80;;
20458;SDS011;10388;52.314;7.938;2023-07-20T09:03:52;0.70;;;0.63;;
20458;SDS011;10388;52.314;7.938;2023-07-20T09:06:22;0.80;;;0.70;;
20458;SDS011;10388;52.314;7.938;2023-07-20T09:08:53;1.17;;;0.90;;
20458;SDS011;10388;52.314;7.938;2023-07-20T09:11:24;0.77;;;0.60;;
20458;SDS011;10388;52.314;7.938;2023-07-20T09:14:05;1.67;;;1.00;;
20458;SDS011;10388;52.314;7.938;2023-07-20T09:16:46;1.47;;;0.70;;
20458;SDS011;10388;52.314;7.938;2023-07-20T09:19:19;0.63;;;0.63;;
20458;SDS011;10388;52.314;7.938;2023-07-20T09:21:50;0.87;;;0.60;;
20458;SDS011;10388;52.314;7.938;2023-07-20T09:24:21;4.67;;;0.90;;
20458;SDS011;10388;52.314;7.938;2023-07-20T09:26:52;1.73;;;0.97;;
20458;SDS011;10388;52.314;7.938;2023-07-20T09:29:22;2.97;;;0.80;;
20458;SDS011;10388;52.314;7.938;2023-07-20T09:32:00;0.60;;;0.60;;
20458;SDS011;10388;52.314;7.938;2023-07-20T09:34:32;1.00;;;0.90;;
20458;SDS011;10388;52.314;7.938;2023-07-20T09:37:02;0.53;;;0.53;;
20458;SDS011;10388;52.314;7.938;2023-07-20T09:39:35;0.83;;;0.77;;
20458;SDS011;10388;52.314;7.938;2023-07-20T09:42:15;1.53;;;0.90;;
20458;SDS011;10388;52.314;7.938;2023-07-20T09:44:46;0.80;;;0.80;;
20458;SDS011;10388;52.314;7.938;2023-07-20T09:47:23;0.70;;;0.70;;
20458;SDS011;10388;52.314;7.938;2023-07-20T09:49:57;1.00;;;0.90;;
20458;SDS011;10388;52.314;7.938;2023-07-20T09:52:29;1.13;;;0.80;;
20458;SDS011;10388;52.314;7.938;2023-07-20T09:55:00;1.43;;;0.90;;
20458;SDS011;10388;52.314;7.938;2023-07-20T09:57:33;0.80;;;0.80;;
20458;SDS011;10388;52.314;7.938;2023-07-20T10:00:05;3.37;;;1.43;;
20458;SDS011;10388;52.314;7.938;2023-07-20T10:02:45;2.87;;;1.40;;
20458;SDS011;10388;52.314;7.938;2023-07-20T10:05:15;2.60;;;1.20;;
20458;SDS011;10388;52.314;7.938;2023-07-20T10:07:47;0.87;;;0.87;;
20458;SDS011;10388;52.314;7.938;2023-07-20T10:10:19;1.50;;;1.40;;
20458;SDS011;10388;52.314;7.938;2023-07-20T10:12:50;2.20;;;1.67;;
20458;SDS011;10388;52.314;7.938;2023-07-20T10:18:29;3.17;;;1.70;;
20458;SDS011;10388;52.314;7.938;2023-07-20T10:21:03;2.10;;;1.90;;
20458;SDS011;10388;52.314;7.938;2023-07-20T10:23:37;1.60;;;1.50;;
20458;SDS011;10388;52.314;7.938;2023-07-20T10:26:09;2.17;;;1.50;;
20458;SDS011;10388;52.314;7.938;2023-07-20T10:28:40;1.17;;;1.13;;
20458;SDS011;10388;52.314;7.938;2023-07-20T10:31:12;1.93;;;1.10;;
20458;SDS011;10388;52.314;7.938;2023-07-20T10:33:43;1.53;;;1.30;;
20458;SDS011;10388;52.314;7.938;2023-07-20T10:36:14;0.87;;;0.87;;
20458;SDS011;10388;52.314;7.938;2023-07-20T10:41:19;0.67;;;0.67;;
20458;SDS011;10388;52.314;7.938;2023-07-20T10:43:50;0.70;;;0.70;;
20458;SDS011;10388;52.314;7.938;2023-07-20T10:46:34;1.63;;;0.80;;
20458;SDS011;10388;52.314;7.938;2023-07-20T10:49:13;0.57;;;0.50;;
20458;SDS011;10388;52.314;7.938;2023-07-20T10:51:45;1.80;;;0.80;;
20458;SDS011;10388;52.314;7.938;2023-07-20T10:56:48;0.60;;;0.60;;
20458;SDS011;10388;52.314;7.938;2023-07-20T10:59:20;1.33;;;0.80;;
20458;SDS011;10388;52.314;7.938;2023-07-20T11:02:07;0.80;;;0.70;;
20458;SDS011;10388;52.314;7.938;2023-07-20T11:04:42;1.50;;;0.70;;
20458;SDS011;10388;52.314;7.938;2023-07-20T11:07:17;0.60;;;0.50;;
20458;SDS011;10388;52.314;7.938;2023-07-20T11:10:14;0.67;;;0.67;;
20458;SDS011;10388;52.314;7.938;2023-07-20T11:18:27;0.80;;;0.60;;
20458;SDS011;10388;52.314;7.938;2023-07-20T11:20:58;0.83;;;0.60;;
20458;SDS011;10388;52.314;7.938;2023-07-20T11:23:29;0.90;;;0.70;;
20458;SDS011;10388;52.314;7.938;2023-07-20T11:26:01;1.17;;;0.60;;
20458;SDS011;10388;52.314;7.938;2023-07-20T11:28:34;0.60;;;0.60;;
20458;SDS011;10388;52.314;7.938;2023-07-20T11:31:04;1.67;;;0.60;;
20458;SDS011;10388;52.314;7.938;2023-07-20T11:33:35;1.17;;;0.60;;
20458;SDS011;10388;52.314;7.938;2023-07-20T11:36:05;1.60;;;0.67;;
20458;SDS011;10388;52.314;7.938;2023-07-20T11:38:36;1.23;;;0.83;;
20458;SDS011;10388;52.314;7.938;2023-07-20T11:41:06;0.60;;;0.60;;
20458;SDS011;10388;52.314;7.938;2023-07-20T11:43:37;0.60;;;0.60;;
20458;SDS011;10388;52.314;7.938;2023-07-20T11:46:08;0.60;;;0.60;;
20458;SDS011;10388;52.314;7.938;2023-07-20T11:48:39;1.03;;;0.50;;
20458;SDS011;10388;52.314;7.938;2023-07-20T11:51:13;0.60;;;0.50;;
20458;SDS011;10388;52.314;7.938;2023-07-20T11:53:47;0.73;;;0.70;;
20458;SDS011;10388;52.314;7.938;2023-07-20T11:56:17;0.70;;;0.63;;
20458;SDS011;10388;52.314;7.938;2023-07-20T11:58:48;0.90;;;0.60;;
20458;SDS011;10388;52.314;7.938;2023-07-20T12:01:18;0.60;;;0.50;;
20458;SDS011;10388;52.314;7.938;2023-07-20T12:03:51;1.40;;;0.60;;
20458;SDS011;10388;52.314;7.938;2023-07-20T12:06:25;0.63;;;0.60;;
20458;SDS011;10388;52.314;7.938;2023-07-20T12:08:58;0.70;;;0.60;;
20458;SDS011;10388;52.314;7.938;2023-07-20T12:11:35;1.57;;;0.67;;
20458;SDS011;10388;52.314;7.938;2023-07-20T12:14:07;1.97;;;0.60;;
20458;SDS011;10388;52.314;7.938;2023-07-20T12:16:38;1.63;;;0.83;;
20458;SDS011;10388;52.314;7.938;2023-07-20T12:19:10;0.50;;;0.50;;
20458;SDS011;10388;52.314;7.938;2023-07-20T12:21:44;1.47;;;0.50;;
20458;SDS011;10388;52.314;7.938;2023-07-20T12:24:14;2.30;;;0.50;;
20458;SDS011;10388;52.314;7.938;2023-07-20T12:26:47;0.70;;;0.63;;
20458;SDS011;10388;52.314;7.938;2023-07-20T12:29:17;0.73;;;0.60;;
20458;SDS011;10388;52.314;7.938;2023-07-20T12:31:48;0.70;;;0.70;;
20458;SDS011;10388;52.314;7.938;2023-07-20T12:34:18;0.80;;;0.70;;
20458;SDS011;10388;52.314;7.938;2023-07-20T12:36:49;0.70;;;0.63;;
20458;SDS011;10388;52.314;7.938;2023-07-20T12:39:19;2.53;;;0.60;;
20458;SDS011;10388;52.314;7.938;2023-07-20T12:41:50;0.60;;;0.60;;
20458;SDS011;10388;52.314;7.938;2023-07-20T12:44:20;0.60;;;0.60;;
20458;SDS011;10388;52.314;7.938;2023-07-20T12:46:51;0.60;;;0.60;;
20458;SDS011;10388;52.314;7.938;2023-07-20T12:49:21;0.60;;;0.50;;
20458;SDS011;10388;52.314;7.938;2023-07-20T12:51:52;1.30;;;0.80;;
20458;SDS011;10388;52.314;7.938;2023-07-20T12:54:22;0.70;;;0.60;;
20458;SDS011;10388;52.314;7.938;2023-07-20T12:56:53;3.80;;;0.80;;
20458;SDS011;10388;52.314;7.938;2023-07-20T12:59:23;1.73;;;0.60;;
20458;SDS011;10388;52.314;7.938;2023-07-20T13:01:54;0.67;;;0.60;;
20458;SDS011;10388;52.314;7.938;2023-07-20T13:04:24;0.80;;;0.80;;
20458;SDS011;10388;52.314;7.938;2023-07-20T13:06:55;1.23;;;0.70;;
20458;SDS011;10388;52.314;7.938;2023-07-20T13:09:25;3.60;;;0.97;;
20458;SDS011;10388;52.314;7.938;2023-07-20T13:11:56;0.70;;;0.70;;
20458;SDS011;10388;52.314;7.938;2023-07-20T13:14:27;0.87;;;0.73;;
20458;SDS011;10388;52.314;7.938;2023-07-20T13:16:59;1.00;;;0.87;;
20458;SDS011;10388;52.314;7.938;2023-07-20T13:19:29;1.77;;;0.83;;
20458;SDS011;10388;52.314;7.938;2023-07-20T13:22:00;0.80;;;0.80;;
20458;SDS011;10388;52.314;7.938;2023-07-20T13:24:30;0.70;;;0.70;;
20458;SDS011;10388;52.314;7.938;2023-07-20T13:27:01;1.17;;;0.70;;
20458;SDS011;10388;52.314;7.938;2023-07-20T13:29:31;1.40;;;0.90;;
20458;SDS011;10388;52.314;7.938;2023-07-20T13:32:02;0.70;;;0.70;;
20458;SDS011;10388;52.314;7.938;2023-07-20T13:34:35;1.23;;;0.80;;
20458;SDS011;10388;52.314;7.938;2023-07-20T13:37:05;0.93;;;0.70;;
20458;SDS011;10388;52.314;7.938;2023-07-20T13:39:36;0.70;;;0.70;;
20458;SDS011;10388;52.314;7.938;2023-07-20T13:42:07;0.50;;;0.50;;
20458;SDS011;10388;52.314;7.938;2023-07-20T13:44:39;0.60;;;0.50;;
20458;SDS011;10388;52.314;7.938;2023-07-20T13:47:11;0.57;;;0.57;;
20458;SDS011;10388;52.314;7.938;2023-07-20T13:49:43;0.53;;;0.53;;
20458;SDS011;10388;52.314;7.938;2023-07-20T13:52:14;0.50;;;0.50;;
20458;SDS011;10388;52.314;7.938;2023-07-20T13:54:45;0.60;;;0.60;;
20458;SDS011;10388;52.314;7.938;2023-07-20T13:57:15;1.50;;;0.53;;
20458;SDS011;10388;52.314;7.938;2023-07-20T13:59:46;0.60;;;0.60;;
20458;SDS011;10388;52.314;7.938;2023-07-20T14:02:17;1.33;;;0.60;;
20458;SDS011;10388;52.314;7.938;2023-07-20T14:04:47;0.57;;;0.57;;
20458;SDS011;10388;52.314;7.938;2023-07-20T14:07:18;1.40;;;0.60;;
20458;SDS011;10388;52.314;7.938;2023-07-20T14:09:48;0.57;;;0.57;;
20458;SDS011;10388;52.314;7.938;2023-07-20T14:12:19;1.27;;;0.70;;
20458;SDS011;10388;52.314;7.938;2023-07-20T14:14:50;2.23;;;0.60;;
20458;SDS011;10388;52.314;7.938;2023-07-20T14:17:20;0.53;;;0.50;;
20458;SDS011;10388;52.314;7.938;2023-07-20T14:19:51;1.33;;;0.60;;
20458;SDS011;10388;52.314;7.938;2023-07-20T14:22:23;0.63;;;0.60;;
20458;SDS011;10388;52.314;7.938;2023-07-20T14:24:53;1.00;;;0.60;;
20458;SDS011;10388;52.314;7.938;2023-07-20T14:27:24;1.03;;;0.70;;
20458;SDS011;10388;52.314;7.938;2023-07-20T14:29:55;0.50;;;0.50;;
20458;SDS011;10388;52.314;7.938;2023-07-20T14:32:25;0.60;;;0.60;;
20458;SDS011;10388;52.314;7.938;2023-07-20T14:34:56;1.70;;;0.50;;
20458;SDS011;10388;52.314;7.938;2023-07-20T14:37:26;0.50;;;0.50;;
20458;SDS011;10388;52.314;7.938;2023-07-20T14:39:57;0.40;;;0.40;;
20458;SDS011;10388;52.314;7.938;2023-07-20T14:42:27;0.70;;;0.50;;
20458;SDS011;10388;52.314;7.938;2023-07-20T14:44:58;0.57;;;0.57;;
20458;SDS011;10388;52.314;7.938;2023-07-20T14:47:28;0.70;;;0.70;;
20458;SDS011;10388;52.314;7.938;2023-07-20T14:50:02;0.50;;;0.50;;
20458;SDS011;10388;52.314;7.938;2023-07-20T14:52:32;0.40;;;0.40;;
20458;SDS011;10388;52.314;7.938;2023-07-20T14:55:03;0.73;;;0.60;;
20458;SDS011;10388;52.314;7.938;2023-07-20T14:57:34;0.50;;;0.50;;
20458;SDS011;10388;52.314;7.938;2023-07-20T15:00:05;0.40;;;0.40;;
20458;SDS011;10388;52.314;7.938;2023-07-20T15:02:40;0.67;;;0.50;;
20458;SDS011;10388;52.314;7.938;2023-07-20T15:05:11;0.40;;;0.40;;
20458;SDS011;10388;52.314;7.938;2023-07-20T15:07:41;0.50;;;0.40;;
20458;SDS011;10388;52.314;7.938;2023-07-20T15:10:13;0.60;;;0.57;;
20458;SDS011;10388;52.314;7.938;2023-07-20T15:12:43;0.50;;;0.50;;
20458;SDS011;10388;52.314;7.938;2023-07-20T15:15:14;0.40;;;0.40;;
20458;SDS011;10388;52.314;7.938;2023-07-20T15:17:45;0.50;;;0.50;;
20458;SDS011;10388;52.314;7.938;2023-07-20T15:20:16;0.50;;;0.50;;
20458;SDS011;10388;52.314;7.938;2023-07-20T15:22:47;0.50;;;0.50;;
20458;SDS011;10388;52.314;7.938;2023-07-20T15:25:17;0.93;;;0.60;;
20458;SDS011;10388;52.314;7.938;2023-07-20T15:27:48;0.60;;;0.60;;
20458;SDS011;10388;52.314;7.938;2023-07-20T15:30:18;0.47;;;0.47;;
20458;SDS011;10388;52.314;7.938;2023-07-20T15:32:49;0.50;;;0.50;;
20458;SDS011;10388;52.314;7.938;2023-07-20T15:35:19;1.37;;;0.50;;
20458;SDS011;10388;52.314;7.938;2023-07-20T15:37:50;0.50;;;0.50;;
20458;SDS011;10388;52.314;7.938;2023-07-20T15:40:20;0.50;;;0.47;;
20458;SDS011;10388;52.314;7.938;2023-07-20T15:42:51;2.97;;;0.80;;
20458;SDS011;10388;52.314;7.938;2023-07-20T15:45:21;1.03;;;0.70;;
20458;SDS011;10388;52.314;7.938;2023-07-20T15:47:53;0.60;;;0.60;;
20458;SDS011;10388;52.314;7.938;2023-07-20T15:50:24;0.57;;;0.57;;
20458;SDS011;10388;52.314;7.938;2023-07-20T15:52:54;0.50;;;0.50;;
20458;SDS011;10388;52.314;7.938;2023-07-20T15:55:25;0.60;;;0.60;;
20458;SDS011;10388;52.314;7.938;2023-07-20T15:57:55;1.23;;;0.60;;
20458;SDS011;10388;52.314;7.938;2023-07-20T16:00:26;0.70;;;0.60;;
20458;SDS011;10388;52.314;7.938;2023-07-20T16:02:56;0.67;;;0.60;;
20458;SDS011;10388;52.314;7.938;2023-07-20T16:05:27;0.80;;;0.60;;
20458;SDS011;10388;52.314;7.938;2023-07-20T16:07:57;1.87;;;0.60;;
20458;SDS011;10388;52.314;7.938;2023-07-20T16:10:28;1.80;;;0.50;;
20458;SDS011;10388;52.314;7.938;2023-07-20T16:12:58;0.77;;;0.60;;
20458;SDS011;10388;52.314;7.938;2023-07-20T16:15:29;0.57;;;0.57;;
20458;SDS011;10388;52.314;7.938;2023-07-20T16:18:00;1.33;;;0.70;;
20458;SDS011;10388;52.314;7.938;2023-07-20T16:20:30;1.80;;;0.60;;
20458;SDS011;10388;52.314;7.938;2023-07-20T16:23:01;3.67;;;0.77;;
20458;SDS011;10388;52.314;7.938;2023-07-20T16:25:35;0.97;;;0.57;;
20458;SDS011;10388;52.314;7.938;2023-07-20T16:28:06;0.60;;;0.60;;
20458;SDS011;10388;52.314;7.938;2023-07-20T16:30:36;0.73;;;0.60;;
20458;SDS011;10388;52.314;7.938;2023-07-20T16:33:07;1.10;;;0.70;;
20458;SDS011;10388;52.314;7.938;2023-07-20T16:35:38;0.50;;;0.50;;
20458;SDS011;10388;52.314;7.938;2023-07-20T16:38:09;0.60;;;0.60;;
20458;SDS011;10388;52.314;7.938;2023-07-20T16:40:42;0.60;;;0.60;;
20458;SDS011;10388;52.314;7.938;2023-07-20T16:43:13;0.60;;;0.60;;
20458;SDS011;10388;52.314;7.938;2023-07-20T16:45:44;1.57;;;0.67;;
20458;SDS011;10388;52.314;7.938;2023-07-20T16:48:14;1.83;;;0.83;;
20458;SDS011;10388;52.314;7.938;2023-07-20T16:50:45;0.73;;;0.60;;
20458;SDS011;10388;52.314;7.938;2023-07-20T16:53:15;0.50;;;0.50;;
20458;SDS011;10388;52.314;7.938;2023-07-20T16:55:49;0.60;;;0.50;;
20458;SDS011;10388;52.314;7.938;2023-07-20T16:58:25;0.77;;;0.60;;
20458;SDS011;10388;52.314;7.938;2023-07-20T17:01:02;0.73;;;0.60;;
20458;SDS011;10388;52.314;7.938;2023-07-20T17:03:36;1.33;;;0.80;;
20458;SDS011;10388;52.314;7.938;2023-07-20T17:06:07;0.60;;;0.60;;